createdAt,value
2022-09-21T00:01:23.614Z,4.65
2022-09-21T00:03:55.264Z,9.15
2022-09-21T00:06:23.375Z,5.97
2022-09-21T00:08:50.082Z,5.75
2022-09-21T00:11:20.469Z,5.22
2022-09-21T00:13:48.196Z,7.63
2022-09-21T00:16:17.039Z,7.47
2022-09-21T00:18:45.475Z,12.07
2022-09-21T00:21:14.512Z,8.77
2022-09-21T00:23:42.163Z,8.07
2022-09-21T00:26:14.434Z,4.65
2022-09-21T00:28:41.967Z,8.13
2022-09-21T00:31:13.684Z,9.18
2022-09-21T00:33:42.053Z,7.85
2022-09-21T00:36:11.182Z,11.20
2022-09-21T00:38:38.701Z,10.43
2022-09-21T00:41:07.672Z,6.60
2022-09-21T00:43:36.155Z,5.15
2022-09-21T00:46:12.590Z,6.03
2022-09-21T00:48:40.045Z,7.85
2022-09-21T00:51:08.016Z,7.35
2022-09-21T00:53:36.574Z,5.70
2022-09-21T00:56:05.374Z,7.32
2022-09-21T00:58:35.979Z,4.88
2022-09-21T01:01:02.702Z,8.75
2022-09-21T01:03:31.318Z,7.65
2022-09-21T01:05:58.184Z,12.05
2022-09-21T01:08:27.405Z,5.45
2022-09-21T01:11:16.231Z,4.80
2022-09-21T01:14:07.988Z,4.35
2022-09-21T01:16:46.566Z,3.03
2022-09-21T01:19:40.498Z,6.13
2022-09-21T01:22:33.787Z,6.95
2022-09-21T01:25:28.608Z,3.78
2022-09-21T01:28:00.236Z,8.90
2022-09-21T01:30:27.231Z,7.88
2022-09-21T01:32:59.903Z,6.65
2022-09-21T01:35:35.895Z,7.07
2022-09-21T01:38:15.873Z,7.53
2022-09-21T01:40:46.527Z,8.68
2022-09-21T01:43:20.058Z,4.28
2022-09-21T01:45:52.047Z,6.07
2022-09-21T01:48:24.218Z,8.65
2022-09-21T01:50:57.123Z,4.60
2022-09-21T01:53:41.758Z,7.00
2022-09-21T01:56:17.926Z,8.32
2022-09-21T01:59:08.883Z,4.72
2022-09-21T02:02:06.279Z,4.45
2022-09-21T02:04:35.193Z,3.45
2022-09-21T02:07:02.457Z,3.88
2022-09-21T02:09:29.535Z,6.30
2022-09-21T02:11:58.149Z,4.07
2022-09-21T02:14:25.599Z,4.10
2022-09-21T02:17:08.790Z,5.78
2022-09-21T02:19:55.529Z,3.47
2022-09-21T02:22:40.886Z,4.25
2022-09-21T02:25:23.392Z,5.35
2022-09-21T02:27:55.501Z,3.47
2022-09-21T02:30:27.642Z,5.15
2022-09-21T02:33:12.925Z,10.40
2022-09-21T02:35:51.017Z,4.93
2022-09-21T02:38:34.895Z,3.05
2022-09-21T02:41:05.831Z,6.22
2022-09-21T02:43:57.616Z,5.03
2022-09-21T02:46:43.584Z,3.92
2022-09-21T02:49:16.580Z,6.18
2022-09-21T02:51:51.075Z,4.85
2022-09-21T02:54:24.744Z,3.40
2022-09-21T02:56:53.959Z,6.95
2022-09-21T02:59:23.520Z,3.10
2022-09-21T03:01:51.696Z,3.53
2022-09-21T03:04:18.389Z,6.03
2022-09-21T03:06:45.146Z,5.32
2022-09-21T03:09:11.776Z,5.75
2022-09-21T03:11:38.987Z,5.28
2022-09-21T03:14:08.884Z,6.45
2022-09-21T03:16:36.926Z,7.47
2022-09-21T03:19:04.134Z,4.68
2022-09-21T03:21:31.210Z,6.00
2022-09-21T03:23:58.001Z,10.13
2022-09-21T03:26:24.631Z,4.47
2022-09-21T03:28:54.833Z,5.88
2022-09-21T03:31:22.380Z,6.07
2022-09-21T03:33:49.633Z,4.85
2022-09-21T03:36:16.308Z,7.50
2022-09-21T03:38:42.875Z,8.20
2022-09-21T03:41:09.588Z,4.05
2022-09-21T03:43:36.145Z,6.78
2022-09-21T03:46:02.807Z,5.90
2022-09-21T03:48:29.456Z,7.90
2022-09-21T03:50:56.131Z,3.75
2022-09-21T03:53:22.713Z,14.38
2022-09-21T03:55:49.837Z,6.85
2022-09-21T03:58:16.426Z,4.38
2022-09-21T04:00:43.000Z,4.72
2022-09-21T04:03:09.585Z,5.72
2022-09-21T04:05:36.159Z,6.30
2022-09-21T04:08:02.761Z,8.77
2022-09-21T04:10:32.673Z,4.30
2022-09-21T04:13:04.694Z,3.83
2022-09-21T04:15:31.625Z,6.60
2022-09-21T04:17:59.106Z,3.83
2022-09-21T04:20:25.965Z,3.53
2022-09-21T04:22:52.782Z,3.95
2022-09-21T04:25:19.712Z,4.95
2022-09-21T04:27:46.442Z,4.30
2022-09-21T04:30:14.400Z,4.63
2022-09-21T04:32:41.425Z,6.28
2022-09-21T04:35:08.584Z,5.53
2022-09-21T04:37:35.427Z,5.13
2022-09-21T04:40:02.411Z,7.22
2022-09-21T04:42:29.195Z,5.47
2022-09-21T04:44:56.407Z,3.15
2022-09-21T04:47:25.153Z,5.05
2022-09-21T04:49:53.396Z,2.97
2022-09-21T04:52:20.251Z,4.38
2022-09-21T04:54:47.864Z,4.68
2022-09-21T04:57:15.228Z,5.07
2022-09-21T04:59:41.836Z,5.60
2022-09-21T05:02:08.807Z,11.30
2022-09-21T05:04:35.497Z,5.57
2022-09-21T05:07:02.069Z,4.30
2022-09-21T05:09:47.146Z,5.82
2022-09-21T05:14:40.974Z,4.53
2022-09-21T05:17:07.848Z,4.32
2022-09-21T05:19:34.439Z,8.57
2022-09-21T05:22:01.215Z,5.30
2022-09-21T05:24:27.859Z,5.88
2022-09-21T05:26:54.514Z,6.50
2022-09-21T05:29:21.439Z,5.93
2022-09-21T05:31:50.779Z,7.15
2022-09-21T05:34:24.079Z,5.38
2022-09-21T05:37:06.979Z,5.50
2022-09-21T05:39:33.911Z,9.52
2022-09-21T05:42:00.863Z,6.70
2022-09-21T05:44:27.763Z,5.38
2022-09-21T05:47:21.685Z,6.38
2022-09-21T05:50:38.755Z,5.72
2022-09-21T05:53:23.958Z,5.72
2022-09-21T05:58:43.721Z,5.15
2022-09-21T06:01:19.546Z,10.43
2022-09-21T06:03:48.851Z,8.35
2022-09-21T06:06:19.965Z,5.90
2022-09-21T06:08:46.567Z,5.93
2022-09-21T06:11:14.011Z,6.95
2022-09-21T06:13:43.850Z,5.22
2022-09-21T06:16:10.853Z,5.63
2022-09-21T06:18:40.076Z,11.75
2022-09-21T06:21:08.258Z,5.43
2022-09-21T06:23:35.847Z,6.38
2022-09-21T06:26:02.683Z,5.25
2022-09-21T06:28:29.777Z,7.30
2022-09-21T06:30:58.117Z,5.40
2022-09-21T06:33:25.627Z,10.98
2022-09-21T06:36:01.489Z,9.13
2022-09-21T06:38:29.315Z,10.82
2022-09-21T06:41:00.975Z,10.20
2022-09-21T06:43:27.602Z,8.27
2022-09-21T06:45:59.473Z,13.02
2022-09-21T06:48:27.563Z,8.43
2022-09-21T06:50:59.408Z,9.18
2022-09-21T06:53:27.424Z,12.20
2022-09-21T06:55:53.999Z,12.45
2022-09-21T06:58:20.683Z,12.75
2022-09-21T07:00:47.459Z,14.75
2022-09-21T07:03:14.135Z,15.32
2022-09-21T07:05:40.904Z,19.25
2022-09-21T07:10:04.895Z,15.20
2022-09-21T07:10:57.454Z,12.23
2022-09-21T07:13:24.245Z,24.45
2022-09-21T07:15:53.324Z,15.35
2022-09-21T07:18:21.120Z,15.52
2022-09-21T07:20:49.120Z,21.38
2022-09-21T07:23:17.771Z,16.80
2022-09-21T07:25:45.902Z,19.70
2022-09-21T07:28:13.453Z,17.75
2022-09-21T07:30:40.752Z,20.20
2022-09-21T07:33:08.008Z,14.75
2022-09-21T07:35:35.027Z,20.10
2022-09-21T07:38:04.384Z,21.73
2022-09-21T07:40:31.373Z,17.33
2022-09-21T07:42:59.064Z,19.02
2022-09-21T07:45:26.955Z,15.85
2022-09-21T07:47:56.599Z,15.23
2022-09-21T07:50:23.541Z,18.98
2022-09-21T07:52:50.118Z,20.27
2022-09-21T07:55:16.707Z,17.55
2022-09-21T07:58:02.153Z,13.93
2022-09-21T08:00:32.593Z,7.82
2022-09-21T08:03:01.217Z,10.95
2022-09-21T08:05:27.855Z,16.83
2022-09-21T08:07:57.976Z,9.18
2022-09-21T08:10:28.097Z,9.90
2022-09-21T08:12:55.780Z,6.40
2022-09-21T08:15:46.842Z,6.75
2022-09-21T08:18:09.140Z,5.97
2022-09-21T08:20:35.864Z,10.02
2022-09-21T08:23:02.428Z,9.18
2022-09-21T08:25:30.320Z,7.60
2022-09-21T08:28:00.589Z,8.52
2022-09-21T08:30:28.339Z,10.02
2022-09-21T08:32:55.627Z,9.63
2022-09-21T08:35:22.228Z,10.30
2022-09-21T08:37:51.181Z,7.15
2022-09-21T08:40:21.583Z,4.47
2022-09-21T08:43:01.538Z,5.72
2022-09-21T08:45:35.723Z,4.55
2022-09-21T08:48:06.234Z,6.53
2022-09-21T08:50:47.924Z,5.22
2022-09-21T08:53:21.794Z,12.32
2022-09-21T08:55:48.483Z,8.97
2022-09-21T08:58:28.507Z,1.88
2022-09-21T09:01:07.577Z,7.22
2022-09-21T09:03:59.701Z,6.80
2022-09-21T09:07:02.412Z,3.00
2022-09-21T09:09:47.677Z,4.63
2022-09-21T09:12:44.698Z,3.83
2022-09-21T09:15:20.110Z,2.50
2022-09-21T09:18:25.502Z,2.05
2022-09-21T09:21:10.723Z,4.45
2022-09-21T09:23:46.711Z,4.80
2022-09-21T09:26:21.428Z,4.45
2022-09-21T09:34:20.963Z,5.55
2022-09-21T09:36:58.904Z,9.13
2022-09-21T09:39:28.254Z,7.68
2022-09-21T09:42:24.304Z,5.85
2022-09-21T09:45:37.128Z,5.63
2022-09-21T09:48:15.992Z,2.58
2022-09-21T09:50:43.450Z,9.02
2022-09-21T09:53:17.211Z,3.38
2022-09-21T09:55:47.796Z,10.77
2022-09-21T09:58:52.944Z,2.45
2022-09-21T10:01:42.918Z,4.15
2022-09-21T10:04:12.389Z,4.90
2022-09-21T10:06:45.134Z,8.30
2022-09-21T10:09:33.811Z,8.93
2022-09-21T10:12:13.356Z,4.78
2022-09-21T10:14:47.778Z,1.40
2022-09-21T10:17:17.415Z,4.53
2022-09-21T10:22:41.833Z,7.18
2022-09-21T10:25:16.678Z,4.05
2022-09-21T10:27:47.033Z,6.72
2022-09-21T10:30:38.688Z,4.72
2022-09-21T10:33:20.237Z,3.40
2022-09-21T10:35:53.498Z,8.02
2022-09-21T10:38:26.432Z,2.47
2022-09-21T10:40:53.973Z,7.00
2022-09-21T10:43:37.607Z,3.15
2022-09-21T10:46:06.634Z,2.63
2022-09-21T10:48:33.576Z,5.18
2022-09-21T10:51:00.228Z,2.88
2022-09-21T10:53:31.249Z,3.47
2022-09-21T10:56:16.368Z,4.13
2022-09-21T10:59:12.270Z,2.88
2022-09-21T11:01:45.763Z,3.80
2022-09-21T11:04:22.016Z,1.52
2022-09-21T11:06:54.272Z,3.90
2022-09-21T11:09:28.572Z,6.68
2022-09-21T11:12:07.423Z,3.22
2022-09-21T11:15:01.800Z,3.40
2022-09-21T11:17:47.176Z,5.00
2022-09-21T11:20:28.045Z,1.52
2022-09-21T11:23:19.452Z,5.82
2022-09-21T11:25:55.104Z,2.53
2022-09-21T11:28:47.835Z,4.25
2022-09-21T11:31:33.096Z,5.55
2022-09-21T11:34:19.295Z,4.88
2022-09-21T11:37:09.835Z,3.13
2022-09-21T11:39:54.676Z,3.67
2022-09-21T11:42:41.508Z,5.25
2022-09-21T11:45:37.901Z,3.42
2022-09-21T11:48:25.624Z,2.53
2022-09-21T11:50:57.458Z,2.50
2022-09-21T11:53:38.432Z,4.47
2022-09-21T11:56:10.997Z,3.55
2022-09-21T11:58:57.679Z,2.15
2022-09-21T12:01:55.013Z,3.88
2022-09-21T12:04:36.851Z,3.70
2022-09-21T12:07:30.129Z,0.90
2022-09-21T12:10:20.664Z,2.45
2022-09-21T12:13:13.388Z,1.95
2022-09-21T12:15:50.020Z,4.63
2022-09-21T12:18:29.979Z,4.72
2022-09-21T12:21:11.950Z,3.22
2022-09-21T12:23:57.955Z,5.38
2022-09-21T12:26:31.795Z,5.05
2022-09-21T12:29:05.383Z,6.27
2022-09-21T12:31:40.963Z,2.67
2022-09-21T12:34:18.123Z,4.05
2022-09-21T12:36:53.916Z,4.78
2022-09-21T12:39:26.945Z,1.65
2022-09-21T12:41:57.005Z,1.13
2022-09-21T12:44:35.880Z,2.08
2022-09-21T12:47:12.343Z,3.67
2022-09-21T12:49:43.296Z,3.50
2022-09-21T12:52:15.005Z,2.22
2022-09-21T12:55:04.834Z,1.23
2022-09-21T12:58:29.765Z,5.05
2022-09-21T13:01:16.823Z,2.28
2022-09-21T13:04:12.779Z,1.95
2022-09-21T13:07:13.469Z,6.35
2022-09-21T13:09:42.707Z,1.02
2022-09-21T13:12:14.299Z,4.50
2022-09-21T13:14:47.964Z,2.05
2022-09-21T13:17:23.815Z,3.53
2022-09-21T13:20:06.250Z,4.93
2022-09-21T13:22:35.496Z,3.97
2022-09-21T13:25:18.644Z,2.15
2022-09-21T13:28:19.614Z,3.40
2022-09-21T13:31:10.038Z,2.97
2022-09-21T13:34:25.778Z,2.00
2022-09-21T13:37:11.240Z,2.05
2022-09-21T13:40:02.008Z,5.90
2022-09-21T13:42:34.791Z,2.92
2022-09-21T13:45:25.968Z,3.90
2022-09-21T13:47:59.514Z,6.70
2022-09-21T13:50:38.911Z,3.47
2022-09-21T13:53:29.705Z,4.65
2022-09-21T13:56:08.585Z,1.30
2022-09-21T13:58:45.611Z,2.17
2022-09-21T14:01:42.457Z,8.20
2022-09-21T14:04:17.944Z,4.18
2022-09-21T14:06:49.709Z,4.30
2022-09-21T14:09:52.368Z,6.60
2022-09-21T14:12:25.183Z,4.40
2022-09-21T14:15:17.211Z,3.95
2022-09-21T14:17:44.040Z,4.13
2022-09-21T14:20:35.865Z,6.78
2022-09-21T14:23:14.542Z,2.17
2022-09-21T14:26:02.005Z,2.08
2022-09-21T14:28:39.196Z,2.45
2022-09-21T14:31:22.057Z,4.90
2022-09-21T14:33:54.268Z,2.78
2022-09-21T14:36:38.255Z,3.65
2022-09-21T14:39:07.744Z,2.38
2022-09-21T14:41:42.025Z,3.03
2022-09-21T14:44:18.854Z,1.88
2022-09-21T14:47:10.401Z,3.13
2022-09-21T14:50:01.697Z,2.78
2022-09-21T14:52:40.017Z,4.03
2022-09-21T14:55:29.504Z,5.18
2022-09-21T14:58:34.862Z,4.20
2022-09-21T15:01:24.674Z,6.13
2022-09-21T15:04:32.674Z,8.88
2022-09-21T15:07:35.528Z,2.08
2022-09-21T15:10:29.946Z,0.80
2022-09-21T15:13:09.813Z,1.20
2022-09-21T15:15:45.281Z,1.95
2022-09-21T15:18:21.174Z,3.45
2022-09-21T15:21:03.540Z,3.88
2022-09-21T15:23:38.339Z,4.78
2022-09-21T15:26:19.139Z,3.55
2022-09-21T15:29:08.940Z,1.33
2022-09-21T15:31:39.540Z,2.15
2022-09-21T15:34:07.806Z,3.17
2022-09-21T15:36:39.353Z,1.27
2022-09-21T15:39:06.523Z,2.92
2022-09-21T15:41:41.082Z,3.25
2022-09-21T15:44:14.782Z,6.82
2022-09-21T15:46:43.903Z,4.93
2022-09-21T15:49:20.593Z,0.75
2022-09-21T15:51:53.676Z,3.50
2022-09-21T15:54:32.023Z,2.80
2022-09-21T15:57:05.942Z,5.78
2022-09-21T15:59:35.166Z,3.60
2022-09-21T16:02:12.188Z,7.30
2022-09-21T16:04:49.139Z,1.58
2022-09-21T16:07:32.798Z,3.08
2022-09-21T16:10:00.798Z,6.00
2022-09-21T16:12:27.323Z,3.22
2022-09-21T16:14:53.965Z,2.78
2022-09-21T16:17:28.613Z,1.75
2022-09-21T16:22:36.970Z,2.22
2022-09-21T16:25:34.920Z,2.45
2022-09-21T16:28:25.886Z,6.68
2022-09-21T16:30:55.016Z,1.90
2022-09-21T16:33:46.388Z,5.07
2022-09-21T16:36:22.275Z,4.70
2022-09-21T16:38:53.696Z,1.40
2022-09-21T16:41:27.270Z,1.63
2022-09-21T16:43:57.307Z,1.10
2022-09-21T16:46:26.789Z,4.28
2022-09-21T16:48:55.671Z,3.40
2022-09-21T16:51:25.626Z,5.40
2022-09-21T16:53:52.512Z,2.55
2022-09-21T16:56:19.786Z,4.20
2022-09-21T16:58:47.211Z,5.43
2022-09-21T17:01:16.584Z,10.43
2022-09-21T17:03:46.375Z,5.55
2022-09-21T17:06:21.740Z,3.60
2022-09-21T17:08:49.454Z,3.03
2022-09-21T17:11:20.253Z,3.40
2022-09-21T17:13:48.059Z,5.63
2022-09-21T17:16:18.485Z,3.67
2022-09-21T17:18:46.729Z,4.80
2022-09-21T17:21:14.455Z,2.17
2022-09-21T17:23:42.650Z,5.35
2022-09-21T17:26:21.188Z,8.15
2022-09-21T17:28:48.052Z,3.85
2022-09-21T17:31:21.026Z,2.38
2022-09-21T17:33:50.271Z,3.42
2022-09-21T17:36:20.113Z,8.10
2022-09-21T17:38:46.719Z,3.65
2022-09-21T17:41:40.188Z,2.10
2022-09-21T17:44:18.895Z,2.05
2022-09-21T17:47:13.270Z,5.13
2022-09-21T17:49:40.315Z,1.35
2022-09-21T17:52:36.182Z,3.92
2022-09-21T17:55:08.274Z,1.00
2022-09-21T17:58:08.259Z,1.35
2022-09-21T18:00:41.552Z,5.45
2022-09-21T18:03:28.700Z,2.40
2022-09-21T18:06:00.535Z,3.95
2022-09-21T18:08:29.112Z,4.25
2022-09-21T18:11:29.274Z,3.25
2022-09-21T18:14:34.124Z,3.53
2022-09-21T18:17:32.827Z,1.70
2022-09-21T18:20:20.995Z,4.20
2022-09-21T18:22:51.356Z,2.67
2022-09-21T18:25:34.872Z,3.50
2022-09-21T18:28:12.829Z,2.58
2022-09-21T18:30:45.236Z,4.55
2022-09-21T18:33:27.856Z,7.72
2022-09-21T18:36:26.937Z,3.20
2022-09-21T18:39:10.343Z,7.70
2022-09-21T18:41:46.191Z,6.65
2022-09-21T18:44:17.929Z,4.10
2022-09-21T18:47:06.596Z,1.25
2022-09-21T18:49:51.250Z,4.07
2022-09-21T18:52:39.281Z,3.47
2022-09-21T18:55:27.003Z,2.17
2022-09-21T18:57:55.258Z,1.13
2022-09-21T19:00:22.607Z,4.18
2022-09-21T19:03:12.832Z,5.22
2022-09-21T19:05:39.685Z,1.83
2022-09-21T19:08:15.277Z,6.57
2022-09-21T19:10:53.819Z,5.10
2022-09-21T19:13:45.204Z,7.32
2022-09-21T19:16:22.767Z,8.15
2022-09-21T19:19:12.569Z,5.22
2022-09-21T19:21:41.389Z,2.38
2022-09-21T19:27:47.109Z,3.88
2022-09-21T19:30:16.677Z,2.85
2022-09-21T19:32:50.810Z,4.18
2022-09-21T19:35:24.020Z,3.20
2022-09-21T19:37:53.202Z,1.60
2022-09-21T19:40:25.173Z,3.42
2022-09-21T19:43:30.244Z,1.20
2022-09-21T19:46:09.045Z,2.90
2022-09-21T19:48:48.644Z,1.08
2022-09-21T19:51:38.212Z,1.27
2022-09-21T19:54:32.166Z,4.68
2022-09-21T19:57:21.181Z,1.75
2022-09-21T19:59:49.493Z,2.38
2022-09-21T20:02:19.556Z,3.00
2022-09-21T20:04:58.110Z,1.13
2022-09-21T20:07:46.041Z,1.42
2022-09-21T20:10:12.606Z,0.70
2022-09-21T20:13:20.744Z,3.45
2022-09-21T20:16:03.596Z,1.70
2022-09-21T20:18:47.371Z,3.63
2022-09-21T20:21:18.757Z,1.50
2022-09-21T20:23:50.082Z,1.48
2022-09-21T20:26:27.118Z,4.43
2022-09-21T20:28:54.779Z,1.00
2022-09-21T20:31:23.714Z,5.90
2022-09-21T20:33:50.512Z,2.47
2022-09-21T20:36:17.207Z,2.78
2022-09-21T20:38:44.155Z,1.73
2022-09-21T20:41:15.513Z,3.45
2022-09-21T20:43:42.701Z,1.58
2022-09-21T20:46:11.118Z,1.65
2022-09-21T20:48:38.308Z,6.28
2022-09-21T20:51:06.234Z,3.53
2022-09-21T20:53:34.102Z,1.90
2022-09-21T20:56:01.885Z,5.32
2022-09-21T20:58:29.791Z,3.53
2022-09-21T21:01:02.745Z,1.88
2022-09-21T21:03:30.544Z,1.47
2022-09-21T21:06:11.685Z,3.15
2022-09-21T21:08:38.656Z,2.30
2022-09-21T21:11:05.568Z,3.03
2022-09-21T21:13:32.733Z,3.58
2022-09-21T21:16:00.085Z,4.72
2022-09-21T21:18:27.519Z,5.28
2022-09-21T21:20:54.111Z,1.35
2022-09-21T21:23:20.926Z,2.33
2022-09-21T21:25:48.046Z,7.20
2022-09-21T21:28:14.722Z,2.78
2022-09-21T21:30:41.478Z,3.85
2022-09-21T21:33:08.092Z,4.10
2022-09-21T21:35:34.879Z,6.55
2022-09-21T21:38:02.319Z,1.48
2022-09-21T21:40:29.044Z,1.38
2022-09-21T21:42:56.456Z,4.70
2022-09-21T21:45:23.258Z,4.30
2022-09-21T21:47:49.919Z,3.63
2022-09-21T21:50:16.619Z,4.00
2022-09-21T21:52:45.009Z,3.88
2022-09-21T21:55:11.967Z,2.28
2022-09-21T21:57:38.561Z,4.05
2022-09-21T22:00:06.342Z,3.95
2022-09-21T22:02:33.004Z,1.88
2022-09-21T22:04:59.707Z,4.47
2022-09-21T22:07:26.270Z,5.63
2022-09-21T22:09:52.917Z,2.03
2022-09-21T22:12:19.909Z,2.45
2022-09-21T22:14:47.650Z,6.40
2022-09-21T22:17:14.589Z,3.47
2022-09-21T22:19:41.923Z,2.30
2022-09-21T22:22:08.895Z,6.53
2022-09-21T22:24:35.564Z,3.10
2022-09-21T22:27:02.147Z,3.83
2022-09-21T22:29:28.766Z,4.20
2022-09-21T22:31:55.495Z,5.22
2022-09-21T22:34:22.138Z,2.20
2022-09-21T22:36:48.855Z,3.10
2022-09-21T22:39:15.566Z,3.20
2022-09-21T22:41:42.922Z,5.43
2022-09-21T22:44:10.580Z,5.20
2022-09-21T22:46:38.009Z,1.65
2022-09-21T22:49:04.876Z,1.98
2022-09-21T22:51:31.719Z,5.40
2022-09-21T22:53:58.484Z,2.17
2022-09-21T22:56:27.774Z,2.38
2022-09-21T22:58:57.463Z,3.53
2022-09-21T23:01:27.282Z,2.45
2022-09-21T23:03:56.760Z,2.92
2022-09-21T23:06:26.601Z,1.98
2022-09-21T23:08:55.378Z,2.65
2022-09-21T23:11:24.559Z,4.47
2022-09-21T23:13:51.181Z,3.10
2022-09-21T23:16:19.089Z,2.80
2022-09-21T23:18:49.260Z,3.92
2022-09-21T23:21:18.729Z,9.65
2022-09-21T23:23:46.138Z,3.35
2022-09-21T23:26:18.522Z,5.22
2022-09-21T23:28:50.725Z,3.88
2022-09-21T23:31:17.546Z,5.63
2022-09-21T23:33:47.133Z,5.95
2022-09-21T23:36:16.605Z,3.42
2022-09-21T23:38:43.907Z,6.03
2022-09-21T23:41:20.824Z,4.35
2022-09-21T23:43:48.089Z,4.10
2022-09-21T23:46:19.974Z,4.32
2022-09-21T23:48:47.166Z,7.90
2022-09-21T23:51:13.886Z,3.03
2022-09-21T23:53:40.909Z,3.63
2022-09-21T23:56:08.595Z,4.28
2022-09-21T23:58:35.400Z,2.08
